sensor_id;sensor_type;location;lat;lon;timestamp;P1;durP1;ratioP1;P2;durP2;ratioP2
21206;SDS011;10761;48.532;8.026;2022-07-23T00:00:00;6.70;;;4.60;;
21206;SDS011;10761;48.532;8.026;2022-07-23T00:02:25;5.95;;;4.30;;
21206;SDS011;10761;48.532;8.026;2022-07-23T00:04:51;5.25;;;4.07;;
21206;SDS011;10761;48.532;8.026;2022-07-23T00:07:17;4.97;;;4.50;;
21206;SDS011;10761;48.532;8.026;2022-07-23T00:09:42;4.57;;;4.18;;
21206;SDS011;10761;48.532;8.026;2022-07-23T00:12:08;4.63;;;4.20;;
21206;SDS011;10761;48.532;8.026;2022-07-23T00:14:33;5.03;;;4.50;;
21206;SDS011;10761;48.532;8.026;2022-07-23T00:16:59;4.90;;;4.35;;
21206;SDS011;10761;48.532;8.026;2022-07-23T00:19:24;4.13;;;3.72;;
21206;SDS011;10761;48.532;8.026;2022-07-23T00:21:50;4.68;;;4.03;;
21206;SDS011;10761;48.532;8.026;2022-07-23T00:24:15;5.55;;;4.93;;
21206;SDS011;10761;48.532;8.026;2022-07-23T00:26:41;5.90;;;5.30;;
21206;SDS011;10761;48.532;8.026;2022-07-23T00:29:07;5.72;;;5.20;;
21206;SDS011;10761;48.532;8.026;2022-07-23T00:31:32;5.63;;;5.15;;
21206;SDS011;10761;48.532;8.026;2022-07-23T00:33:58;5.75;;;5.07;;
21206;SDS011;10761;48.532;8.026;2022-07-23T00:36:26;6.05;;;5.45;;
21206;SDS011;10761;48.532;8.026;2022-07-23T00:38:52;6.60;;;5.00;;
21206;SDS011;10761;48.532;8.026;2022-07-23T00:41:18;6.35;;;5.22;;
21206;SDS011;10761;48.532;8.026;2022-07-23T00:43:43;5.15;;;4.65;;
21206;SDS011;10761;48.532;8.026;2022-07-23T00:46:09;6.93;;;5.18;;
21206;SDS011;10761;48.532;8.026;2022-07-23T00:48:34;6.88;;;5.13;;
21206;SDS011;10761;48.532;8.026;2022-07-23T00:51:00;6.30;;;4.68;;
21206;SDS011;10761;48.532;8.026;2022-07-23T00:53:26;5.70;;;5.10;;
21206;SDS011;10761;48.532;8.026;2022-07-23T00:55:51;5.15;;;4.68;;
21206;SDS011;10761;48.532;8.026;2022-07-23T00:58:18;7.07;;;5.10;;
21206;SDS011;10761;48.532;8.026;2022-07-23T01:00:44;7.15;;;5.10;;
21206;SDS011;10761;48.532;8.026;2022-07-23T01:03:09;5.57;;;5.07;;
21206;SDS011;10761;48.532;8.026;2022-07-23T01:05:35;6.38;;;4.75;;
21206;SDS011;10761;48.532;8.026;2022-07-23T01:08:01;5.55;;;5.05;;
21206;SDS011;10761;48.532;8.026;2022-07-23T01:10:26;6.57;;;5.35;;
21206;SDS011;10761;48.532;8.026;2022-07-23T01:15:25;5.55;;;4.85;;
21206;SDS011;10761;48.532;8.026;2022-07-23T01:17:51;7.35;;;5.38;;
21206;SDS011;10761;48.532;8.026;2022-07-23T01:20:17;5.05;;;4.50;;
21206;SDS011;10761;48.532;8.026;2022-07-23T01:22:43;6.07;;;5.57;;
21206;SDS011;10761;48.532;8.026;2022-07-23T01:25:09;5.70;;;5.15;;
21206;SDS011;10761;48.532;8.026;2022-07-23T01:27:35;6.45;;;5.70;;
21206;SDS011;10761;48.532;8.026;2022-07-23T01:30:01;6.18;;;5.57;;
21206;SDS011;10761;48.532;8.026;2022-07-23T01:32:28;6.97;;;5.35;;
21206;SDS011;10761;48.532;8.026;2022-07-23T01:34:54;5.88;;;5.28;;
21206;SDS011;10761;48.532;8.026;2022-07-23T01:37:19;5.70;;;5.10;;
21206;SDS011;10761;48.532;8.026;2022-07-23T01:39:45;6.15;;;5.53;;
21206;SDS011;10761;48.532;8.026;2022-07-23T01:42:10;6.55;;;5.40;;
21206;SDS011;10761;48.532;8.026;2022-07-23T01:44:36;5.72;;;5.22;;
21206;SDS011;10761;48.532;8.026;2022-07-23T01:47:01;6.18;;;5.57;;
21206;SDS011;10761;48.532;8.026;2022-07-23T01:49:27;6.97;;;5.15;;
21206;SDS011;10761;48.532;8.026;2022-07-23T01:51:53;6.32;;;5.00;;
21206;SDS011;10761;48.532;8.026;2022-07-23T01:54:24;6.70;;;5.75;;
21206;SDS011;10761;48.532;8.026;2022-07-23T01:56:57;6.03;;;5.45;;
21206;SDS011;10761;48.532;8.026;2022-07-23T01:59:23;5.72;;;4.97;;
21206;SDS011;10761;48.532;8.026;2022-07-23T02:01:49;6.07;;;5.47;;
21206;SDS011;10761;48.532;8.026;2022-07-23T02:04:17;5.97;;;5.47;;
21206;SDS011;10761;48.532;8.026;2022-07-23T02:06:44;5.78;;;5.28;;
21206;SDS011;10761;48.532;8.026;2022-07-23T02:09:09;6.07;;;5.47;;
21206;SDS011;10761;48.532;8.026;2022-07-23T02:11:35;6.28;;;5.68;;
21206;SDS011;10761;48.532;8.026;2022-07-23T02:14:01;6.00;;;5.40;;
21206;SDS011;10761;48.532;8.026;2022-07-23T02:16:27;6.38;;;5.63;;
21206;SDS011;10761;48.532;8.026;2022-07-23T02:18:52;7.57;;;5.40;;
21206;SDS011;10761;48.532;8.026;2022-07-23T02:21:18;5.68;;;5.10;;
21206;SDS011;10761;48.532;8.026;2022-07-23T02:23:43;6.57;;;5.45;;
21206;SDS011;10761;48.532;8.026;2022-07-23T02:26:09;7.10;;;5.53;;
21206;SDS011;10761;48.532;8.026;2022-07-23T02:28:35;6.13;;;5.50;;
21206;SDS011;10761;48.532;8.026;2022-07-23T02:31:00;8.02;;;5.20;;
21206;SDS011;10761;48.532;8.026;2022-07-23T02:33:26;5.88;;;5.05;;
21206;SDS011;10761;48.532;8.026;2022-07-23T02:35:51;5.97;;;5.22;;
21206;SDS011;10761;48.532;8.026;2022-07-23T02:38:17;5.32;;;4.85;;
21206;SDS011;10761;48.532;8.026;2022-07-23T02:40:42;5.57;;;5.07;;
21206;SDS011;10761;48.532;8.026;2022-07-23T02:43:08;5.63;;;5.05;;
21206;SDS011;10761;48.532;8.026;2022-07-23T02:45:33;4.97;;;4.57;;
21206;SDS011;10761;48.532;8.026;2022-07-23T02:47:59;5.13;;;4.45;;
21206;SDS011;10761;48.532;8.026;2022-07-23T02:50:24;5.18;;;4.47;;
21206;SDS011;10761;48.532;8.026;2022-07-23T02:52:50;5.20;;;4.70;;
21206;SDS011;10761;48.532;8.026;2022-07-23T02:55:15;5.15;;;4.65;;
21206;SDS011;10761;48.532;8.026;2022-07-23T02:57:41;9.45;;;5.18;;
21206;SDS011;10761;48.532;8.026;2022-07-23T03:00:07;5.53;;;4.75;;
21206;SDS011;10761;48.532;8.026;2022-07-23T03:02:33;5.30;;;4.80;;
21206;SDS011;10761;48.532;8.026;2022-07-23T03:04:59;6.10;;;5.03;;
21206;SDS011;10761;48.532;8.026;2022-07-23T03:07:24;5.05;;;4.50;;
21206;SDS011;10761;48.532;8.026;2022-07-23T03:09:51;4.88;;;4.47;;
21206;SDS011;10761;48.532;8.026;2022-07-23T03:12:16;5.20;;;4.70;;
21206;SDS011;10761;48.532;8.026;2022-07-23T03:14:42;5.22;;;4.60;;
21206;SDS011;10761;48.532;8.026;2022-07-23T03:17:08;6.13;;;4.85;;
21206;SDS011;10761;48.532;8.026;2022-07-23T03:19:34;5.15;;;4.65;;
21206;SDS011;10761;48.532;8.026;2022-07-23T03:22:00;6.40;;;5.15;;
21206;SDS011;10761;48.532;8.026;2022-07-23T03:24:25;5.43;;;4.90;;
21206;SDS011;10761;48.532;8.026;2022-07-23T03:27:11;5.55;;;4.78;;
21206;SDS011;10761;48.532;8.026;2022-07-23T03:29:37;6.63;;;4.78;;
21206;SDS011;10761;48.532;8.026;2022-07-23T03:32:03;5.25;;;4.70;;
21206;SDS011;10761;48.532;8.026;2022-07-23T03:34:29;6.35;;;4.93;;
21206;SDS011;10761;48.532;8.026;2022-07-23T03:36:54;5.65;;;4.72;;
21206;SDS011;10761;48.532;8.026;2022-07-23T03:39:20;5.82;;;5.20;;
21206;SDS011;10761;48.532;8.026;2022-07-23T03:41:45;6.20;;;4.93;;
21206;SDS011;10761;48.532;8.026;2022-07-23T03:44:11;5.57;;;4.95;;
21206;SDS011;10761;48.532;8.026;2022-07-23T03:46:36;6.90;;;5.22;;
21206;SDS011;10761;48.532;8.026;2022-07-23T03:49:02;7.38;;;5.00;;
21206;SDS011;10761;48.532;8.026;2022-07-23T03:51:27;6.65;;;4.80;;
21206;SDS011;10761;48.532;8.026;2022-07-23T03:53:53;5.68;;;5.00;;
21206;SDS011;10761;48.532;8.026;2022-07-23T03:56:20;9.20;;;5.00;;
21206;SDS011;10761;48.532;8.026;2022-07-23T03:58:45;7.45;;;5.82;;
21206;SDS011;10761;48.532;8.026;2022-07-23T04:01:11;5.40;;;4.95;;
21206;SDS011;10761;48.532;8.026;2022-07-23T04:03:37;9.13;;;5.03;;
21206;SDS011;10761;48.532;8.026;2022-07-23T04:06:02;5.82;;;5.22;;
21206;SDS011;10761;48.532;8.026;2022-07-23T04:08:28;9.13;;;5.47;;
21206;SDS011;10761;48.532;8.026;2022-07-23T04:10:55;7.30;;;5.50;;
21206;SDS011;10761;48.532;8.026;2022-07-23T04:13:21;6.30;;;5.70;;
21206;SDS011;10761;48.532;8.026;2022-07-23T04:15:46;6.32;;;5.40;;
21206;SDS011;10761;48.532;8.026;2022-07-23T04:18:12;6.40;;;5.68;;
21206;SDS011;10761;48.532;8.026;2022-07-23T04:20:37;6.00;;;5.28;;
21206;SDS011;10761;48.532;8.026;2022-07-23T04:23:03;6.15;;;5.55;;
21206;SDS011;10761;48.532;8.026;2022-07-23T04:25:29;5.72;;;5.22;;
21206;SDS011;10761;48.532;8.026;2022-07-23T04:27:54;5.80;;;5.30;;
21206;SDS011;10761;48.532;8.026;2022-07-23T04:30:20;5.38;;;4.88;;
21206;SDS011;10761;48.532;8.026;2022-07-23T04:32:45;5.80;;;5.28;;
21206;SDS011;10761;48.532;8.026;2022-07-23T04:35:11;7.45;;;5.43;;
21206;SDS011;10761;48.532;8.026;2022-07-23T04:37:37;5.55;;;4.97;;
21206;SDS011;10761;48.532;8.026;2022-07-23T04:40:02;6.40;;;5.22;;
21206;SDS011;10761;48.532;8.026;2022-07-23T04:42:28;5.43;;;4.88;;
21206;SDS011;10761;48.532;8.026;2022-07-23T04:44:54;5.60;;;5.10;;
21206;SDS011;10761;48.532;8.026;2022-07-23T04:47:19;6.43;;;5.07;;
21206;SDS011;10761;48.532;8.026;2022-07-23T04:49:45;5.63;;;4.82;;
21206;SDS011;10761;48.532;8.026;2022-07-23T04:52:10;5.30;;;4.60;;
21206;SDS011;10761;48.532;8.026;2022-07-23T04:54:36;5.88;;;5.15;;
21206;SDS011;10761;48.532;8.026;2022-07-23T04:57:02;6.95;;;5.10;;
21206;SDS011;10761;48.532;8.026;2022-07-23T04:59:28;6.97;;;4.78;;
21206;SDS011;10761;48.532;8.026;2022-07-23T05:01:53;5.75;;;5.15;;
21206;SDS011;10761;48.532;8.026;2022-07-23T05:04:19;5.35;;;4.85;;
21206;SDS011;10761;48.532;8.026;2022-07-23T05:06:44;5.95;;;5.32;;
21206;SDS011;10761;48.532;8.026;2022-07-23T05:09:10;5.45;;;4.95;;
21206;SDS011;10761;48.532;8.026;2022-07-23T05:11:35;5.60;;;5.00;;
21206;SDS011;10761;48.532;8.026;2022-07-23T05:14:01;6.82;;;5.07;;
21206;SDS011;10761;48.532;8.026;2022-07-23T05:16:27;7.32;;;4.85;;
21206;SDS011;10761;48.532;8.026;2022-07-23T05:18:52;7.53;;;5.70;;
21206;SDS011;10761;48.532;8.026;2022-07-23T05:21:18;5.53;;;5.03;;
21206;SDS011;10761;48.532;8.026;2022-07-23T05:23:44;6.25;;;4.63;;
21206;SDS011;10761;48.532;8.026;2022-07-23T05:26:10;6.32;;;4.85;;
21206;SDS011;10761;48.532;8.026;2022-07-23T05:28:35;10.60;;;5.05;;
21206;SDS011;10761;48.532;8.026;2022-07-23T05:31:01;5.60;;;5.10;;
21206;SDS011;10761;48.532;8.026;2022-07-23T05:33:28;6.00;;;4.75;;
21206;SDS011;10761;48.532;8.026;2022-07-23T05:35:59;7.82;;;4.90;;
21206;SDS011;10761;48.532;8.026;2022-07-23T05:38:26;5.50;;;5.00;;
21206;SDS011;10761;48.532;8.026;2022-07-23T05:40:51;5.53;;;4.90;;
21206;SDS011;10761;48.532;8.026;2022-07-23T05:43:17;5.13;;;4.43;;
21206;SDS011;10761;48.532;8.026;2022-07-23T05:45:42;4.93;;;4.40;;
21206;SDS011;10761;48.532;8.026;2022-07-23T05:48:08;5.30;;;4.80;;
21206;SDS011;10761;48.532;8.026;2022-07-23T05:50:33;5.43;;;4.63;;
21206;SDS011;10761;48.532;8.026;2022-07-23T05:52:59;6.63;;;5.35;;
21206;SDS011;10761;48.532;8.026;2022-07-23T05:55:25;5.30;;;4.80;;
21206;SDS011;10761;48.532;8.026;2022-07-23T05:57:50;5.50;;;5.03;;
21206;SDS011;10761;48.532;8.026;2022-07-23T06:00:16;8.25;;;6.03;;
21206;SDS011;10761;48.532;8.026;2022-07-23T06:02:41;6.03;;;5.30;;
21206;SDS011;10761;48.532;8.026;2022-07-23T06:05:07;7.20;;;5.00;;
21206;SDS011;10761;48.532;8.026;2022-07-23T06:07:33;5.28;;;4.88;;
21206;SDS011;10761;48.532;8.026;2022-07-23T06:09:59;5.53;;;4.78;;
21206;SDS011;10761;48.532;8.026;2022-07-23T06:12:25;7.15;;;5.45;;
21206;SDS011;10761;48.532;8.026;2022-07-23T06:14:50;9.80;;;5.80;;
21206;SDS011;10761;48.532;8.026;2022-07-23T06:17:17;8.52;;;5.10;;
21206;SDS011;10761;48.532;8.026;2022-07-23T06:19:43;5.72;;;4.93;;
21206;SDS011;10761;48.532;8.026;2022-07-23T06:22:08;5.63;;;5.10;;
21206;SDS011;10761;48.532;8.026;2022-07-23T06:24:34;5.68;;;4.80;;
21206;SDS011;10761;48.532;8.026;2022-07-23T06:26:59;5.90;;;4.90;;
21206;SDS011;10761;48.532;8.026;2022-07-23T06:29:25;6.18;;;5.03;;
21206;SDS011;10761;48.532;8.026;2022-07-23T06:31:50;6.68;;;5.00;;
21206;SDS011;10761;48.532;8.026;2022-07-23T06:34:16;6.40;;;5.03;;
21206;SDS011;10761;48.532;8.026;2022-07-23T06:36:42;5.80;;;4.68;;
21206;SDS011;10761;48.532;8.026;2022-07-23T06:39:07;6.45;;;4.60;;
21206;SDS011;10761;48.532;8.026;2022-07-23T06:41:33;5.20;;;4.70;;
21206;SDS011;10761;48.532;8.026;2022-07-23T06:43:58;4.95;;;4.45;;
21206;SDS011;10761;48.532;8.026;2022-07-23T06:46:24;5.22;;;4.72;;
21206;SDS011;10761;48.532;8.026;2022-07-23T06:48:50;5.72;;;5.20;;
21206;SDS011;10761;48.532;8.026;2022-07-23T06:51:15;6.03;;;4.60;;
21206;SDS011;10761;48.532;8.026;2022-07-23T06:53:41;6.03;;;5.10;;
21206;SDS011;10761;48.532;8.026;2022-07-23T06:56:07;9.18;;;5.38;;
21206;SDS011;10761;48.532;8.026;2022-07-23T06:58:32;8.18;;;5.53;;
21206;SDS011;10761;48.532;8.026;2022-07-23T07:00:58;15.57;;;5.88;;
21206;SDS011;10761;48.532;8.026;2022-07-23T07:03:24;27.33;;;7.25;;
21206;SDS011;10761;48.532;8.026;2022-07-23T07:05:49;22.30;;;6.55;;
21206;SDS011;10761;48.532;8.026;2022-07-23T07:08:15;7.75;;;5.65;;
21206;SDS011;10761;48.532;8.026;2022-07-23T07:10:41;6.15;;;5.30;;
21206;SDS011;10761;48.532;8.026;2022-07-23T07:13:06;8.18;;;5.63;;
21206;SDS011;10761;48.532;8.026;2022-07-23T07:15:32;65.72;;;9.00;;
21206;SDS011;10761;48.532;8.026;2022-07-23T07:17:57;10.05;;;5.68;;
21206;SDS011;10761;48.532;8.026;2022-07-23T07:20:23;14.90;;;5.57;;
21206;SDS011;10761;48.532;8.026;2022-07-23T07:22:49;6.88;;;5.53;;
21206;SDS011;10761;48.532;8.026;2022-07-23T07:25:14;5.47;;;4.97;;
21206;SDS011;10761;48.532;8.026;2022-07-23T07:27:40;6.80;;;5.15;;
21206;SDS011;10761;48.532;8.026;2022-07-23T07:30:06;5.72;;;5.20;;
21206;SDS011;10761;48.532;8.026;2022-07-23T07:32:32;6.43;;;5.25;;
21206;SDS011;10761;48.532;8.026;2022-07-23T07:34:58;9.57;;;5.20;;
21206;SDS011;10761;48.532;8.026;2022-07-23T07:37:24;6.43;;;5.68;;
21206;SDS011;10761;48.532;8.026;2022-07-23T07:39:49;6.22;;;5.63;;
21206;SDS011;10761;48.532;8.026;2022-07-23T07:42:15;5.45;;;4.80;;
21206;SDS011;10761;48.532;8.026;2022-07-23T07:44:40;11.18;;;5.53;;
21206;SDS011;10761;48.532;8.026;2022-07-23T07:47:06;9.20;;;5.97;;
21206;SDS011;10761;48.532;8.026;2022-07-23T07:49:32;13.43;;;6.03;;
21206;SDS011;10761;48.532;8.026;2022-07-23T07:51:58;11.50;;;5.90;;
21206;SDS011;10761;48.532;8.026;2022-07-23T07:54:23;9.52;;;5.80;;
21206;SDS011;10761;48.532;8.026;2022-07-23T07:56:49;9.63;;;6.65;;
21206;SDS011;10761;48.532;8.026;2022-07-23T07:59:14;6.75;;;5.82;;
21206;SDS011;10761;48.532;8.026;2022-07-23T08:01:40;8.25;;;6.03;;
21206;SDS011;10761;48.532;8.026;2022-07-23T08:04:06;6.88;;;5.75;;
21206;SDS011;10761;48.532;8.026;2022-07-23T08:06:31;6.68;;;6.03;;
21206;SDS011;10761;48.532;8.026;2022-07-23T08:08:57;8.95;;;5.28;;
21206;SDS011;10761;48.532;8.026;2022-07-23T08:11:22;6.53;;;5.75;;
21206;SDS011;10761;48.532;8.026;2022-07-23T08:13:48;6.35;;;5.57;;
21206;SDS011;10761;48.532;8.026;2022-07-23T08:16:14;7.18;;;5.43;;
21206;SDS011;10761;48.532;8.026;2022-07-23T08:18:39;7.25;;;5.70;;
21206;SDS011;10761;48.532;8.026;2022-07-23T08:21:05;8.15;;;5.88;;
21206;SDS011;10761;48.532;8.026;2022-07-23T08:23:31;6.38;;;5.55;;
21206;SDS011;10761;48.532;8.026;2022-07-23T08:25:56;11.68;;;6.47;;
21206;SDS011;10761;48.532;8.026;2022-07-23T08:28:24;7.88;;;6.80;;
21206;SDS011;10761;48.532;8.026;2022-07-23T08:30:50;9.35;;;6.88;;
21206;SDS011;10761;48.532;8.026;2022-07-23T08:33:16;11.13;;;6.70;;
21206;SDS011;10761;48.532;8.026;2022-07-23T08:35:44;8.90;;;6.65;;
21206;SDS011;10761;48.532;8.026;2022-07-23T08:38:15;9.40;;;5.40;;
21206;SDS011;10761;48.532;8.026;2022-07-23T08:40:43;7.82;;;6.18;;
21206;SDS011;10761;48.532;8.026;2022-07-23T08:43:11;8.75;;;5.57;;
21206;SDS011;10761;48.532;8.026;2022-07-23T08:45:46;7.25;;;6.35;;
21206;SDS011;10761;48.532;8.026;2022-07-23T08:48:13;7.63;;;6.55;;
21206;SDS011;10761;48.532;8.026;2022-07-23T08:50:53;7.85;;;6.25;;
21206;SDS011;10761;48.532;8.026;2022-07-23T08:53:20;6.28;;;5.15;;
21206;SDS011;10761;48.532;8.026;2022-07-23T08:55:48;6.35;;;5.75;;
21206;SDS011;10761;48.532;8.026;2022-07-23T08:58:16;7.30;;;5.93;;
21206;SDS011;10761;48.532;8.026;2022-07-23T09:00:42;7.63;;;5.43;;
21206;SDS011;10761;48.532;8.026;2022-07-23T09:03:12;7.15;;;5.78;;
21206;SDS011;10761;48.532;8.026;2022-07-23T09:05:41;6.35;;;5.65;;
21206;SDS011;10761;48.532;8.026;2022-07-23T09:08:11;7.72;;;5.82;;
21206;SDS011;10761;48.532;8.026;2022-07-23T09:10:45;7.07;;;6.30;;
21206;SDS011;10761;48.532;8.026;2022-07-23T09:15:57;8.07;;;6.07;;
21206;SDS011;10761;48.532;8.026;2022-07-23T09:18:31;7.30;;;6.47;;
21206;SDS011;10761;48.532;8.026;2022-07-23T09:21:20;8.98;;;7.20;;
21206;SDS011;10761;48.532;8.026;2022-07-23T09:23:51;6.53;;;5.93;;
21206;SDS011;10761;48.532;8.026;2022-07-23T09:34:18;7.40;;;5.43;;
21206;SDS011;10761;48.532;8.026;2022-07-23T09:36:43;6.45;;;5.55;;
21206;SDS011;10761;48.532;8.026;2022-07-23T09:39:10;7.90;;;5.50;;
21206;SDS011;10761;48.532;8.026;2022-07-23T09:41:41;8.25;;;5.15;;
21206;SDS011;10761;48.532;8.026;2022-07-23T09:44:08;7.20;;;5.68;;
21206;SDS011;10761;48.532;8.026;2022-07-23T09:46:39;6.75;;;5.75;;
21206;SDS011;10761;48.532;8.026;2022-07-23T09:49:12;6.75;;;5.38;;
21206;SDS011;10761;48.532;8.026;2022-07-23T09:51:43;7.72;;;5.95;;
21206;SDS011;10761;48.532;8.026;2022-07-23T09:54:21;6.43;;;5.82;;
21206;SDS011;10761;48.532;8.026;2022-07-23T09:56:51;5.60;;;5.03;;
21206;SDS011;10761;48.532;8.026;2022-07-23T09:59:17;6.57;;;5.50;;
21206;SDS011;10761;48.532;8.026;2022-07-23T10:01:43;6.32;;;4.90;;
21206;SDS011;10761;48.532;8.026;2022-07-23T10:04:13;5.70;;;5.07;;
21206;SDS011;10761;48.532;8.026;2022-07-23T10:06:39;7.03;;;5.10;;
21206;SDS011;10761;48.532;8.026;2022-07-23T10:09:07;5.72;;;5.22;;
21206;SDS011;10761;48.532;8.026;2022-07-23T10:11:36;7.30;;;5.55;;
21206;SDS011;10761;48.532;8.026;2022-07-23T10:14:03;5.22;;;4.70;;
21206;SDS011;10761;48.532;8.026;2022-07-23T10:16:30;6.15;;;4.45;;
21206;SDS011;10761;48.532;8.026;2022-07-23T10:18:56;5.45;;;4.80;;
21206;SDS011;10761;48.532;8.026;2022-07-23T10:21:30;5.47;;;4.97;;
21206;SDS011;10761;48.532;8.026;2022-07-23T10:24:08;5.70;;;4.90;;
21206;SDS011;10761;48.532;8.026;2022-07-23T10:27:02;5.35;;;4.85;;
21206;SDS011;10761;48.532;8.026;2022-07-23T10:32:24;5.63;;;4.75;;
21206;SDS011;10761;48.532;8.026;2022-07-23T10:37:45;5.20;;;4.43;;
21206;SDS011;10761;48.532;8.026;2022-07-23T10:40:14;4.90;;;4.50;;
21206;SDS011;10761;48.532;8.026;2022-07-23T10:42:45;4.40;;;3.90;;
21206;SDS011;10761;48.532;8.026;2022-07-23T10:47:51;4.47;;;4.07;;
21206;SDS011;10761;48.532;8.026;2022-07-23T10:50:21;4.32;;;3.90;;
21206;SDS011;10761;48.532;8.026;2022-07-23T10:58:22;5.47;;;4.75;;
21206;SDS011;10761;48.532;8.026;2022-07-23T11:03:59;4.72;;;4.30;;
21206;SDS011;10761;48.532;8.026;2022-07-23T11:06:47;6.38;;;4.75;;
21206;SDS011;10761;48.532;8.026;2022-07-23T11:17:37;5.30;;;4.80;;
21206;SDS011;10761;48.532;8.026;2022-07-23T11:20:17;4.82;;;4.43;;
21206;SDS011;10761;48.532;8.026;2022-07-23T11:22:51;5.22;;;4.55;;
21206;SDS011;10761;48.532;8.026;2022-07-23T11:27:52;6.03;;;4.45;;
21206;SDS011;10761;48.532;8.026;2022-07-23T11:35:37;6.68;;;4.38;;
21206;SDS011;10761;48.532;8.026;2022-07-23T11:38:07;6.72;;;4.20;;
21206;SDS011;10761;48.532;8.026;2022-07-23T11:40:34;6.20;;;4.65;;
21206;SDS011;10761;48.532;8.026;2022-07-23T11:43:01;4.88;;;4.38;;
21206;SDS011;10761;48.532;8.026;2022-07-23T11:48:01;5.88;;;4.60;;
21206;SDS011;10761;48.532;8.026;2022-07-23T11:50:27;6.10;;;4.97;;
21206;SDS011;10761;48.532;8.026;2022-07-23T11:52:53;6.45;;;4.60;;
21206;SDS011;10761;48.532;8.026;2022-07-23T11:55:19;5.50;;;4.50;;
21206;SDS011;10761;48.532;8.026;2022-07-23T11:57:46;7.70;;;4.10;;
21206;SDS011;10761;48.532;8.026;2022-07-23T12:02:40;5.45;;;4.60;;
21206;SDS011;10761;48.532;8.026;2022-07-23T12:05:21;4.82;;;4.30;;
21206;SDS011;10761;48.532;8.026;2022-07-23T12:07:50;6.85;;;4.72;;
21206;SDS011;10761;48.532;8.026;2022-07-23T12:12:51;8.35;;;4.72;;
21206;SDS011;10761;48.532;8.026;2022-07-23T12:15:29;8.25;;;5.03;;
21206;SDS011;10761;48.532;8.026;2022-07-23T12:17:57;5.55;;;4.55;;
21206;SDS011;10761;48.532;8.026;2022-07-23T12:20:25;7.63;;;4.57;;
21206;SDS011;10761;48.532;8.026;2022-07-23T12:22:53;5.40;;;4.93;;
21206;SDS011;10761;48.532;8.026;2022-07-23T12:25:23;6.22;;;4.75;;
21206;SDS011;10761;48.532;8.026;2022-07-23T12:27:58;6.25;;;4.75;;
21206;SDS011;10761;48.532;8.026;2022-07-23T12:30:38;8.10;;;5.43;;
21206;SDS011;10761;48.532;8.026;2022-07-23T12:33:05;7.22;;;5.82;;
21206;SDS011;10761;48.532;8.026;2022-07-23T12:38:07;7.30;;;5.70;;
21206;SDS011;10761;48.532;8.026;2022-07-23T12:40:35;6.22;;;5.20;;
21206;SDS011;10761;48.532;8.026;2022-07-23T12:43:06;5.80;;;5.30;;
21206;SDS011;10761;48.532;8.026;2022-07-23T12:45:45;5.53;;;4.93;;
21206;SDS011;10761;48.532;8.026;2022-07-23T12:48:19;6.13;;;5.53;;
21206;SDS011;10761;48.532;8.026;2022-07-23T12:50:53;6.05;;;5.15;;
21206;SDS011;10761;48.532;8.026;2022-07-23T12:53:27;5.70;;;5.18;;
21206;SDS011;10761;48.532;8.026;2022-07-23T12:55:58;6.93;;;5.50;;
21206;SDS011;10761;48.532;8.026;2022-07-23T12:58:26;6.63;;;5.75;;
21206;SDS011;10761;48.532;8.026;2022-07-23T13:01:02;6.15;;;5.20;;
21206;SDS011;10761;48.532;8.026;2022-07-23T13:03:31;6.72;;;5.55;;
21206;SDS011;10761;48.532;8.026;2022-07-23T13:05:57;6.32;;;5.70;;
21206;SDS011;10761;48.532;8.026;2022-07-23T13:08:24;6.18;;;5.60;;
21206;SDS011;10761;48.532;8.026;2022-07-23T13:10:51;6.13;;;5.57;;
21206;SDS011;10761;48.532;8.026;2022-07-23T13:13:19;6.65;;;5.20;;
21206;SDS011;10761;48.532;8.026;2022-07-23T13:15:46;7.80;;;5.68;;
21206;SDS011;10761;48.532;8.026;2022-07-23T13:18:13;6.35;;;5.63;;
21206;SDS011;10761;48.532;8.026;2022-07-23T13:20:38;5.93;;;5.32;;
21206;SDS011;10761;48.532;8.026;2022-07-23T13:23:06;6.90;;;5.60;;
21206;SDS011;10761;48.532;8.026;2022-07-23T13:25:32;7.60;;;5.75;;
21206;SDS011;10761;48.532;8.026;2022-07-23T13:27:58;6.07;;;5.53;;
21206;SDS011;10761;48.532;8.026;2022-07-23T13:30:23;6.22;;;5.60;;
21206;SDS011;10761;48.532;8.026;2022-07-23T13:32:49;6.97;;;5.60;;
21206;SDS011;10761;48.532;8.026;2022-07-23T13:35:14;6.72;;;5.30;;
21206;SDS011;10761;48.532;8.026;2022-07-23T13:37:40;7.22;;;5.35;;
21206;SDS011;10761;48.532;8.026;2022-07-23T13:40:06;5.88;;;5.35;;
21206;SDS011;10761;48.532;8.026;2022-07-23T13:42:32;6.03;;;5.53;;
21206;SDS011;10761;48.532;8.026;2022-07-23T13:44:58;6.43;;;5.55;;
21206;SDS011;10761;48.532;8.026;2022-07-23T13:47:24;5.95;;;5.40;;
21206;SDS011;10761;48.532;8.026;2022-07-23T13:49:50;5.82;;;5.10;;
21206;SDS011;10761;48.532;8.026;2022-07-23T13:52:15;7.22;;;5.63;;
21206;SDS011;10761;48.532;8.026;2022-07-23T13:54:41;6.82;;;5.60;;
21206;SDS011;10761;48.532;8.026;2022-07-23T13:57:07;7.88;;;5.80;;
21206;SDS011;10761;48.532;8.026;2022-07-23T13:59:34;5.93;;;5.43;;
21206;SDS011;10761;48.532;8.026;2022-07-23T14:02:01;7.60;;;5.95;;
21206;SDS011;10761;48.532;8.026;2022-07-23T14:04:28;8.30;;;5.80;;
21206;SDS011;10761;48.532;8.026;2022-07-23T14:06:53;7.10;;;5.50;;
21206;SDS011;10761;48.532;8.026;2022-07-23T14:09:19;8.63;;;5.82;;
21206;SDS011;10761;48.532;8.026;2022-07-23T14:11:45;7.05;;;5.93;;
21206;SDS011;10761;48.532;8.026;2022-07-23T14:14:10;7.57;;;5.70;;
21206;SDS011;10761;48.532;8.026;2022-07-23T14:16:36;9.30;;;5.68;;
21206;SDS011;10761;48.532;8.026;2022-07-23T14:19:01;8.52;;;5.97;;
21206;SDS011;10761;48.532;8.026;2022-07-23T14:21:27;6.85;;;5.35;;
21206;SDS011;10761;48.532;8.026;2022-07-23T14:23:53;8.30;;;6.00;;
21206;SDS011;10761;48.532;8.026;2022-07-23T14:26:18;8.60;;;5.82;;
21206;SDS011;10761;48.532;8.026;2022-07-23T14:28:44;6.55;;;5.68;;
21206;SDS011;10761;48.532;8.026;2022-07-23T14:31:10;6.38;;;5.10;;
21206;SDS011;10761;48.532;8.026;2022-07-23T14:33:35;6.78;;;5.60;;
21206;SDS011;10761;48.532;8.026;2022-07-23T14:36:01;6.53;;;5.40;;
21206;SDS011;10761;48.532;8.026;2022-07-23T14:38:27;6.88;;;5.30;;
21206;SDS011;10761;48.532;8.026;2022-07-23T14:40:55;6.38;;;5.38;;
21206;SDS011;10761;48.532;8.026;2022-07-23T14:43:21;7.95;;;5.90;;
21206;SDS011;10761;48.532;8.026;2022-07-23T14:45:46;6.82;;;6.13;;
21206;SDS011;10761;48.532;8.026;2022-07-23T14:48:12;6.55;;;5.47;;
21206;SDS011;10761;48.532;8.026;2022-07-23T14:50:38;6.40;;;5.68;;
21206;SDS011;10761;48.532;8.026;2022-07-23T14:53:03;5.80;;;5.20;;
21206;SDS011;10761;48.532;8.026;2022-07-23T14:55:30;6.68;;;5.40;;
21206;SDS011;10761;48.532;8.026;2022-07-23T14:57:56;7.45;;;5.07;;
21206;SDS011;10761;48.532;8.026;2022-07-23T15:00:22;5.85;;;5.25;;
21206;SDS011;10761;48.532;8.026;2022-07-23T15:02:48;6.30;;;5.70;;
21206;SDS011;10761;48.532;8.026;2022-07-23T15:05:13;6.20;;;5.60;;
21206;SDS011;10761;48.532;8.026;2022-07-23T15:07:39;8.18;;;5.68;;
21206;SDS011;10761;48.532;8.026;2022-07-23T15:10:05;9.63;;;6.05;;
21206;SDS011;10761;48.532;8.026;2022-07-23T15:12:31;9.23;;;5.60;;
21206;SDS011;10761;48.532;8.026;2022-07-23T15:14:56;9.45;;;5.25;;
21206;SDS011;10761;48.532;8.026;2022-07-23T15:17:22;6.13;;;5.22;;
21206;SDS011;10761;48.532;8.026;2022-07-23T15:19:48;7.13;;;4.97;;
21206;SDS011;10761;48.532;8.026;2022-07-23T15:22:13;8.40;;;5.53;;
21206;SDS011;10761;48.532;8.026;2022-07-23T15:24:39;6.18;;;5.57;;
21206;SDS011;10761;48.532;8.026;2022-07-23T15:27:04;7.25;;;5.32;;
21206;SDS011;10761;48.532;8.026;2022-07-23T15:29:30;6.72;;;5.50;;
21206;SDS011;10761;48.532;8.026;2022-07-23T15:31:56;6.78;;;5.20;;
21206;SDS011;10761;48.532;8.026;2022-07-23T15:34:21;6.13;;;5.53;;
21206;SDS011;10761;48.532;8.026;2022-07-23T15:36:47;8.48;;;5.07;;
21206;SDS011;10761;48.532;8.026;2022-07-23T15:39:12;5.85;;;5.35;;
21206;SDS011;10761;48.532;8.026;2022-07-23T15:41:38;5.68;;;5.18;;